Time;durP1;ratioP1;P1;durP2;ratioP2;P2;SDS_P1;SDS_P2;PMS_P1;PMS_P2;Temp;Humidity;BMP_temperature;BMP_pressure;BME280_temperature;BME280_humidity;BME280_pressure;Samples;Min_cycle;Max_cycle;Signal;HPM_P1;HPM_P2
2023/09/02 00:02:02;;;;;;;1.98;1.30;;;;;;;15.28;100.00;100531.84;4994001;28;20053;-75
2023/09/02 00:04:30;;;;;;;2.15;1.50;;;;;;;15.19;100.00;100524.44;5002378;28;20065;-74
2023/09/02 00:06:58;;;;;;;2.83;1.30;;;;;;;15.14;100.00;100515.88;4977099;28;20045;-73
2023/09/02 00:09:28;;;;;;;2.15;1.30;;;;;;;15.16;100.00;100516.63;5002185;28;20237;-73
2023/09/02 00:11:56;;;;;;;1.73;1.40;;;;;;;15.25;100.00;100527.59;4998695;28;20137;-72
2023/09/02 00:14:24;;;;;;;1.77;1.30;;;;;;;15.22;100.00;100538.44;5008579;28;20046;-74
2023/09/02 00:16:53;;;;;;;2.10;1.45;;;;;;;15.20;100.00;100540.34;4977263;28;20042;-74
2023/09/02 00:19:22;;;;;;;1.50;1.25;;;;;;;14.96;100.00;100508.09;4976095;28;20049;-73
2023/09/02 00:21:51;;;;;;;2.17;1.50;;;;;;;15.07;100.00;100534.94;5007304;28;20038;-73
2023/09/02 00:24:20;;;;;;;2.72;1.50;;;;;;;15.08;100.00;100539.34;4988354;28;20046;-74
2023/09/02 00:26:49;;;;;;;2.72;2.03;;;;;;;14.99;100.00;100525.69;5002898;28;20141;-74
2023/09/02 00:29:17;;;;;;;2.22;1.75;;;;;;;15.03;100.00;100546.75;5011923;28;20124;-73
2023/09/02 00:31:46;;;;;;;2.58;1.65;;;;;;;15.03;100.00;100551.22;4994467;28;20049;-73
2023/09/02 00:34:14;;;;;;;2.13;1.75;;;;;;;15.00;100.00;100548.75;5006615;28;20057;-73
2023/09/02 00:36:42;;;;;;;9.98;5.00;;;;;;;14.94;100.00;100539.34;4992343;28;20050;-73
2023/09/02 00:39:11;;;;;;;3.33;2.00;;;;;;;15.04;100.00;100543.13;4992856;28;20049;-72
2023/09/02 00:41:46;;;;;;;2.05;1.50;;;;;;;15.07;100.00;100548.28;4992231;28;20557;-73
2023/09/02 00:44:16;;;;;;;1.75;1.65;;;;;;;15.06;100.00;100546.56;4989547;28;20069;-73
2023/09/02 00:46:45;;;;;;;5.03;2.05;;;;;;;15.01;100.00;100537.13;4991994;28;20107;-74
2023/09/02 00:49:14;;;;;;;1.58;1.48;;;;;;;14.98;100.00;100540.84;5010873;28;20038;-73
2023/09/02 00:51:42;;;;;;;1.95;1.45;;;;;;;15.02;100.00;100550.38;4992827;28;20048;-73
2023/09/02 00:54:12;;;;;;;4.10;1.67;;;;;;;14.99;100.00;100553.22;5010108;28;20058;-74
2023/09/02 00:56:41;;;;;;;1.63;1.50;;;;;;;14.89;100.00;100540.56;4990154;28;20054;-73
2023/09/02 00:59:10;;;;;;;2.35;1.90;;;;;;;14.89;100.00;100546.78;4995379;28;20778;-73
2023/09/02 01:01:43;;;;;;;2.70;1.80;;;;;;;14.88;100.00;100541.53;4990465;28;20049;-74
2023/09/02 01:04:12;;;;;;;3.45;2.28;;;;;;;14.91;100.00;100552.88;5009566;28;20145;-73
2023/09/02 01:06:41;;;;;;;2.20;2.00;;;;;;;14.93;100.00;100548.31;4983975;28;20054;-74
2023/09/02 01:09:10;;;;;;;3.10;2.20;;;;;;;15.00;100.00;100551.41;5010117;28;20073;-74
2023/09/02 01:11:38;;;;;;;3.78;2.35;;;;;;;15.00;100.00;100554.94;4990521;28;20097;-74
2023/09/02 01:14:08;;;;;;;2.75;2.30;;;;;;;14.92;100.00;100543.06;5012709;28;20050;-74
2023/09/02 01:16:36;;;;;;;3.53;2.40;;;;;;;14.97;100.00;100556.94;4968490;28;20050;-74
2023/09/02 01:19:08;;;;;;;3.03;2.10;;;;;;;14.94;100.00;100563.34;4979102;28;20049;-74
2023/09/02 01:21:57;;;;;;;2.72;2.20;;;;;;;14.85;100.00;100545.25;4994121;28;20074;-74
2023/09/02 01:24:45;;;;;;;3.30;2.20;;;;;;;14.87;100.00;100556.66;5004586;28;20140;-73
2023/09/02 01:27:20;;;;;;;2.92;2.00;;;;;;;14.85;100.00;100566.56;4992337;28;20093;-73
2023/09/02 01:29:56;;;;;;;4.55;2.88;;;;;;;14.79;100.00;100568.78;4989378;28;20038;-73
2023/09/02 01:32:29;;;;;;;3.45;2.35;;;;;;;14.69;100.00;100568.47;4987475;28;20042;-73
2023/09/02 01:35:03;;;;;;;2.10;1.90;;;;;;;14.73;100.00;100578.84;4979888;28;20045;-73
2023/09/02 01:37:33;;;;;;;4.03;2.13;;;;;;;14.73;100.00;100580.66;4994434;28;20501;-73
2023/09/02 01:40:05;;;;;;;1.85;1.75;;;;;;;14.78;100.00;100586.56;4990802;28;20049;-73
2023/09/02 01:42:37;;;;;;;4.40;1.70;;;;;;;14.74;100.00;100579.72;4992373;28;20052;-73
2023/09/02 01:45:08;;;;;;;2.08;1.60;;;;;;;14.60;100.00;100567.22;4986166;28;20049;-73
2023/09/02 01:47:37;;;;;;;;;;;;;;;14.69;100.00;100595.13;4986213;28;20054;-73
2023/09/02 01:50:11;;;;;;;2.88;1.73;;;;;;;14.65;100.00;100588.25;5003363;28;19929;-73
2023/09/02 01:52:42;;;;;;;1.75;1.65;;;;;;;14.65;100.00;100590.91;5008185;28;20431;-73
2023/09/02 01:55:11;;;;;;;3.53;1.85;;;;;;;14.62;100.00;100597.31;4983018;28;20046;-73
2023/09/02 01:57:41;;;;;;;1.92;1.83;;;;;;;14.57;100.00;100591.41;4987743;28;20129;-74
2023/09/02 02:00:11;;;;;;;3.83;1.77;;;;;;;14.52;100.00;100587.28;4991851;28;20558;-73
2023/09/02 02:02:41;;;;;;;1.60;1.50;;;;;;;14.55;100.00;100603.09;5006139;28;20061;-72
2023/09/02 02:05:14;;;;;;;2.65;1.65;;;;;;;14.35;100.00;100561.63;4990416;28;20171;-73
2023/09/02 02:07:46;;;;;;;2.67;1.67;;;;;;;14.55;100.00;100597.75;4990413;28;20045;-73
2023/09/02 02:10:17;;;;;;;2.60;1.50;;;;;;;14.51;100.00;100591.75;4993135;28;20712;-78
2023/09/02 02:12:47;;;;;;;2.65;1.70;;;;;;;14.46;100.00;100582.34;4992597;28;20060;-73
2023/09/02 02:15:15;;;;;;;3.13;2.13;;;;;;;14.42;100.00;100581.66;4975464;28;20637;-75
2023/09/02 02:17:46;;;;;;;1.52;1.33;;;;;;;14.59;100.00;100599.31;4974073;28;20052;-74
2023/09/02 02:20:14;;;;;;;2.00;1.60;;;;;;;14.61;100.00;100603.59;4993593;28;20050;-74
2023/09/02 02:22:44;;;;;;;2.40;1.48;;;;;;;14.54;100.00;100601.38;4989976;28;20068;-74
2023/09/02 02:25:12;;;;;;;3.03;1.80;;;;;;;14.42;100.00;100591.47;5004776;28;20054;-73
2023/09/02 02:27:40;;;;;;;2.30;2.05;;;;;;;14.42;100.00;100599.44;4987419;28;20050;-73
2023/09/02 02:30:12;;;;;;;2.10;1.63;;;;;;;14.36;100.00;100603.28;4989200;28;20046;-74
2023/09/02 02:32:41;;;;;;;3.58;2.00;;;;;;;14.28;100.00;100603.75;4971523;28;20042;-73
2023/09/02 02:35:10;;;;;;;2.28;1.60;;;;;;;14.26;100.00;100615.44;4988933;28;20046;-73
2023/09/02 02:37:38;;;;;;;3.00;2.13;;;;;;;14.13;100.00;100604.66;4985648;28;20053;-73
2023/09/02 02:40:07;;;;;;;2.88;2.20;;;;;;;14.09;100.00;100610.25;5006879;28;20057;-73
2023/09/02 02:42:35;;;;;;;2.60;1.90;;;;;;;14.08;100.00;100620.03;4973889;28;20045;-73
2023/09/02 02:45:05;;;;;;;3.67;2.03;;;;;;;14.06;100.00;100616.59;4992782;28;20054;-72
2023/09/02 02:47:34;;;;;;;2.53;2.10;;;;;;;13.99;100.00;100607.25;4984639;28;20045;-72
2023/09/02 02:50:03;;;;;;;3.15;2.00;;;;;;;14.01;100.00;100616.00;4992190;28;20050;-74
2023/09/02 02:52:32;;;;;;;2.80;2.28;;;;;;;13.98;100.00;100613.53;5006880;28;20056;-73
2023/09/02 02:55:00;;;;;;;5.60;2.63;;;;;;;14.00;100.00;100617.84;4992027;28;20506;-73
2023/09/02 02:57:28;;;;;;;4.13;2.50;;;;;;;14.02;100.00;100615.91;4983822;28;20128;-73
2023/09/02 02:59:56;;;;;;;3.25;2.78;;;;;;;14.03;100.00;100620.28;4992296;28;20050;-73
2023/09/02 03:02:24;;;;;;;2.83;2.50;;;;;;;13.94;100.00;100609.31;4991904;28;20082;-74
2023/09/02 03:04:59;;;;;;;3.22;2.38;;;;;;;13.98;100.00;100626.84;4990927;28;20085;-73
2023/09/02 03:07:28;;;;;;;2.70;2.50;;;;;;;13.99;100.00;100617.91;4988204;28;20042;-73
2023/09/02 03:09:57;;;;;;;2.50;2.30;;;;;;;14.08;100.00;100630.69;4990838;28;20042;-74
2023/09/02 03:12:28;;;;;;;5.63;2.60;;;;;;;14.15;100.00;100640.06;4989111;28;20038;-72
2023/09/02 03:14:57;;;;;;;3.25;2.75;;;;;;;14.15;100.00;100628.53;4991797;28;20046;-75
2023/09/02 03:17:27;;;;;;;3.43;2.70;;;;;;;14.14;100.00;100626.81;4981210;28;20049;-73
2023/09/02 03:19:57;;;;;;;4.60;2.55;;;;;;;14.26;100.00;100640.28;4975144;28;20942;-73
2023/09/02 03:22:25;;;;;;;6.40;2.85;;;;;;;14.31;100.00;100642.69;4990912;28;20046;-74
2023/09/02 03:24:54;;;;;;;4.13;2.42;;;;;;;14.24;100.00;100625.31;4978871;28;20048;-74
2023/09/02 03:27:26;;;;;;;2.83;2.40;;;;;;;14.29;100.00;100634.78;4995384;28;20050;-73
2023/09/02 03:29:56;;;;;;;2.78;2.53;;;;;;;14.34;100.00;100639.81;5005959;28;20054;-73
2023/09/02 03:32:26;;;;;;;3.08;2.65;;;;;;;14.29;100.00;100625.94;4976011;28;20070;-73
2023/09/02 03:34:57;;;;;;;4.38;2.72;;;;;;;14.38;100.00;100644.88;4999062;28;20033;-73
2023/09/02 03:37:26;;;;;;;3.67;3.20;;;;;;;14.38;100.00;100642.22;4993767;28;20037;-73
2023/09/02 03:39:54;;;;;;;2.80;2.40;;;;;;;14.34;100.00;100643.34;4994653;28;20042;-73
2023/09/02 03:42:23;;;;;;;5.20;3.17;;;;;;;14.37;100.00;100645.81;4979064;28;20042;-73
2023/09/02 03:44:51;;;;;;;4.05;2.92;;;;;;;14.43;100.00;100649.13;4987862;28;20042;-73
2023/09/02 03:47:19;;;;;;;5.40;3.08;;;;;;;14.45;100.00;100652.56;4999519;28;20050;-73
2023/09/02 03:49:51;;;;;;;3.90;3.50;;;;;;;14.32;100.00;100639.91;4991061;28;20133;-73
2023/09/02 03:52:20;;;;;;;;;;;;;;;14.45;100.00;100660.56;4973687;28;20350;-73
2023/09/02 03:54:48;;;;;;;4.50;2.88;;;;;;;14.45;100.00;100655.22;5008887;28;19921;-73
2023/09/02 03:57:17;;;;;;;3.78;2.47;;;;;;;14.49;100.00;100656.75;4989543;28;20073;-74
2023/09/02 03:59:45;;;;;;;3.38;2.75;;;;;;;14.32;100.00;100633.75;5006869;28;20041;-74
2023/09/02 04:02:14;;;;;;;3.13;2.78;;;;;;;14.41;100.00;100656.34;4995365;28;20060;-73
2023/09/02 04:04:42;;;;;;;6.35;3.35;;;;;;;14.48;100.00;100671.03;4993391;28;20145;-75
2023/09/02 04:07:10;;;;;;;3.97;2.40;;;;;;;14.49;100.00;100670.06;5009822;28;20041;-73
2023/09/02 04:09:43;;;;;;;3.13;2.22;;;;;;;14.46;100.00;100660.47;4994194;28;20069;-72
2023/09/02 04:12:14;;;;;;;2.40;2.10;;;;;;;14.57;100.00;100670.47;4993922;28;20168;-73
2023/09/02 04:14:42;;;;;;;4.43;2.30;;;;;;;14.60;100.00;100664.97;4988853;28;20038;-73
2023/09/02 04:17:12;;;;;;;2.70;2.50;;;;;;;14.58;100.00;100661.53;5006391;28;20065;-72
2023/09/02 04:19:41;;;;;;;5.90;2.53;;;;;;;14.57;100.00;100652.69;5016370;28;20038;-73
2023/09/02 04:22:10;;;;;;;3.05;2.75;;;;;;;14.60;100.00;100667.66;4979320;28;20074;-73
2023/09/02 04:24:40;;;;;;;3.05;2.40;;;;;;;14.61;100.00;100661.38;5011522;28;20050;-73
2023/09/02 04:27:08;;;;;;;2.78;2.58;;;;;;;14.62;100.00;100663.09;4987536;28;20046;-74
2023/09/02 04:29:37;;;;;;;2.40;2.10;;;;;;;14.63;100.00;100659.47;4985944;28;20073;-73
2023/09/02 04:32:06;;;;;;;4.75;2.88;;;;;;;14.64;100.00;100669.16;5006055;28;20054;-73
2023/09/02 04:34:34;;;;;;;6.32;2.85;;;;;;;14.65;100.00;100673.53;4976864;28;20045;-73
2023/09/02 04:37:06;;;;;;;4.63;2.80;;;;;;;14.64;100.00;100658.50;5003261;28;20051;-73
2023/09/02 04:39:34;;;;;;;7.45;3.00;;;;;;;14.61;100.00;100650.72;4986828;28;20096;-73
2023/09/02 04:42:05;;;;;;;3.17;2.42;;;;;;;14.72;100.00;100675.75;4993058;28;20096;-73
2023/09/02 04:44:33;;;;;;;2.75;2.55;;;;;;;14.73;100.00;100681.94;5011450;28;20042;-74
2023/09/02 04:47:01;;;;;;;3.85;2.83;;;;;;;14.72;100.00;100675.75;5024672;28;20045;-73
2023/09/02 04:49:29;;;;;;;3.58;2.95;;;;;;;14.81;100.00;100682.34;5029417;28;20126;-74
2023/09/02 04:51:59;;;;;;;4.00;3.20;;;;;;;14.83;100.00;100682.25;4996136;28;20453;-74
2023/09/02 04:54:27;;;;;;;5.70;2.35;;;;;;;14.83;100.00;100688.44;5030176;28;20093;-73
2023/09/02 04:56:56;;;;;;;3.97;2.50;;;;;;;14.87;100.00;100681.13;5025371;28;20037;-73
2023/09/02 04:59:26;;;;;;;2.63;2.42;;;;;;;14.88;100.00;100686.38;5010612;28;20056;-73
2023/09/02 05:01:54;;;;;;;4.90;2.65;;;;;;;14.92;100.00;100684.38;4999947;28;20073;-73
2023/09/02 05:04:23;;;;;;;4.78;3.08;;;;;;;14.91;100.00;100682.66;5033970;28;20068;-73
2023/09/02 05:06:51;;;;;;;3.42;2.75;;;;;;;14.94;100.00;100691.34;5010377;28;20493;-73
2023/09/02 05:09:19;;;;;;;3.00;2.72;;;;;;;14.89;100.00;100674.75;4975447;28;20111;-73
2023/09/02 05:11:48;;;;;;;2.90;2.60;;;;;;;15.04;100.00;100688.97;4990361;28;20069;-73
2023/09/02 05:14:17;;;;;;;4.07;2.47;;;;;;;15.09;100.00;100681.56;5010782;28;20037;-73
2023/09/02 05:16:46;;;;;;;5.13;2.70;;;;;;;15.14;100.00;100683.91;5012301;28;20052;-73
2023/09/02 05:19:15;;;;;;;3.28;2.97;;;;;;;15.12;100.00;100677.81;5010380;28;20057;-72
2023/09/02 05:21:44;;;;;;;4.03;3.03;;;;;;;14.97;100.00;100658.28;4997098;28;20045;-73
2023/09/02 05:24:12;;;;;;;3.15;2.85;;;;;;;15.00;100.00;100664.28;5005151;28;20045;-72
2023/09/02 05:26:42;;;;;;;;;;;;;;;15.13;100.00;100682.19;5008340;28;20410;-74
2023/09/02 05:29:11;;;;;;;3.83;2.60;;;;;;;15.15;100.00;100666.97;5009841;28;20406;-73
2023/09/02 05:31:40;;;;;;;4.65;3.15;;;;;;;15.15;100.00;100666.97;5015514;28;20041;-73
2023/09/02 05:34:10;;;;;;;3.92;3.00;;;;;;;15.25;100.00;100682.31;5014828;28;20046;-73
2023/09/02 05:36:38;;;;;;;4.30;2.85;;;;;;;15.35;100.00;100685.28;5008258;28;20049;-73
2023/09/02 05:39:07;;;;;;;4.35;3.42;;;;;;;15.42;100.00;100687.44;5007915;28;20049;-73
2023/09/02 05:41:35;;;;;;;4.00;3.05;;;;;;;15.41;100.00;100672.41;5025702;28;20064;-73
2023/09/02 05:44:02;;;;;;;5.03;3.53;;;;;;;15.51;100.00;100685.16;5026542;28;20046;-73
2023/09/02 05:46:31;;;;;;;5.30;3.47;;;;;;;15.57;100.00;100685.69;4996648;28;20123;-74
2023/09/02 05:48:59;;;;;;;4.40;3.33;;;;;;;15.57;100.00;100696.38;4984411;28;20049;-73
2023/09/02 05:51:30;;;;;;;3.30;3.00;;;;;;;15.58;100.00;100695.41;4994052;28;20092;-73
2023/09/02 05:53:58;;;;;;;;;;;;;;;15.65;100.00;100699.41;5025733;28;20484;-73
2023/09/02 05:56:27;;;;;;;5.15;3.88;;;;;;;15.71;100.00;100704.38;5011430;28;19921;-72
2023/09/02 05:58:55;;;;;;;4.07;3.67;;;;;;;15.72;100.00;100703.41;5026082;28;20112;-74
2023/09/02 06:01:24;;;;;;;4.82;3.45;;;;;;;15.77;100.00;100703.09;5018833;28;20050;-73
2023/09/02 06:03:54;;;;;;;5.80;4.10;;;;;;;15.83;100.00;100704.53;4994033;28;20057;-73
2023/09/02 06:06:23;;;;;;;4.10;3.70;;;;;;;15.91;100.00;100707.56;5010654;28;20050;-73
2023/09/02 06:08:53;;;;;;;3.90;3.17;;;;;;;15.92;100.00;100706.59;5006576;28;20065;-73
2023/09/02 06:11:24;;;;;;;5.22;3.13;;;;;;;16.00;100.00;100715.00;5016039;28;20053;-73
2023/09/02 06:13:52;;;;;;;4.85;3.63;;;;;;;16.06;100.00;100706.56;5009095;28;20041;-73
2023/09/02 06:16:20;;;;;;;5.35;3.65;;;;;;;16.10;100.00;100710.75;5012079;28;20049;-74
2023/09/02 06:18:49;;;;;;;4.22;3.72;;;;;;;16.08;100.00;100715.34;5021144;28;20048;-74
2023/09/02 06:21:17;;;;;;;5.03;4.10;;;;;;;16.06;100.00;100701.22;5032641;28;20061;-72
2023/09/02 06:23:49;;;;;;;5.55;4.03;;;;;;;16.12;100.00;100706.19;5021313;28;20132;-73
2023/09/02 06:26:20;;;;;;;4.50;4.10;;;;;;;15.99;100.00;100691.91;4993230;28;20046;-74
2023/09/02 06:28:48;;;;;;;5.72;4.05;;;;;;;16.09;100.00;100711.72;5009054;28;20123;-74
2023/09/02 06:31:16;;;;;;;6.75;4.50;;;;;;;16.18;100.00;100712.94;5005375;28;20053;-73
2023/09/02 06:33:44;;;;;;;6.32;4.53;;;;;;;16.22;100.00;100698.41;5013867;28;20045;-75
2023/09/02 06:36:14;;;;;;;7.20;5.38;;;;;;;16.25;100.00;100688.38;4992201;28;20596;-74
2023/09/02 06:38:43;;;;;;;5.00;4.47;;;;;;;16.35;100.00;100697.53;5008927;28;20052;-73
2023/09/02 06:41:12;;;;;;;10.40;6.20;;;;;;;16.31;100.00;100687.13;5025255;28;20398;-75
2023/09/02 06:43:42;;;;;;;8.63;7.22;;;;;;;16.50;100.00;100709.03;5029757;28;20052;-73
2023/09/02 06:46:14;;;;;;;7.68;6.88;;;;;;;16.55;100.00;100703.34;5031288;28;20045;-74
2023/09/02 06:48:43;;;;;;;8.82;7.93;;;;;;;16.65;100.00;100708.03;5004806;28;20049;-74
2023/09/02 06:51:11;;;;;;;10.45;8.63;;;;;;;16.68;100.00;100720.34;5007139;28;20046;-75
2023/09/02 06:53:39;;;;;;;10.20;9.07;;;;;;;16.63;100.00;100728.66;5000992;28;20182;-74
2023/09/02 06:56:08;;;;;;;10.20;9.15;;;;;;;16.62;100.00;100728.72;5008037;28;21224;-74
2023/09/02 06:58:41;;;;;;;9.35;8.45;;;;;;;16.57;100.00;100714.78;5001248;28;20054;-75
2023/09/02 07:01:21;;;;;;;8.95;8.05;;;;;;;16.71;100.00;100737.00;5002889;28;20057;-73
2023/09/02 07:03:55;;;;;;;9.35;8.43;;;;;;;16.52;100.00;100706.25;5009040;28;20046;-72
2023/09/02 07:06:25;;;;;;;10.45;7.93;;;;;;;16.73;100.00;100747.59;5022370;28;20073;-74
2023/09/02 07:08:54;;;;;;;8.13;7.32;;;;;;;16.82;100.00;100753.22;5004735;28;20143;-75
2023/09/02 07:11:22;;;;;;;8.57;7.50;;;;;;;16.91;100.00;100757.06;5008013;28;20046;-74
2023/09/02 07:13:50;;;;;;;9.00;8.15;;;;;;;16.99;100.00;100761.91;5005304;28;20049;-72
2023/09/02 07:16:21;;;;;;;8.80;8.00;;;;;;;16.99;100.00;100753.91;5005132;28;20054;-74
2023/09/02 07:18:53;;;;;;;8.10;7.30;;;;;;;17.13;100.00;100770.72;4980624;28;20064;-74
2023/09/02 07:21:22;;;;;;;8.10;7.20;;;;;;;17.10;100.00;100740.63;4990791;28;20088;-73
2023/09/02 07:23:54;;;;;;;7.80;7.00;;;;;;;17.31;100.00;100765.06;4988453;28;20069;-73
2023/09/02 07:26:27;;;;;;;6.63;6.03;;;;;;;17.33;100.00;100769.34;5005205;28;20042;-73
2023/09/02 07:28:55;;;;;;;;;;;;;;;17.38;100.00;100769.88;4984035;28;20077;-74
2023/09/02 07:31:25;;;;;;;6.85;5.68;;;;;;;17.39;100.00;100774.28;4995916;28;19921;-73
2023/09/02 07:33:53;;;;;;;6.55;5.10;;;;;;;17.37;100.00;100768.16;4991957;28;20049;-73
2023/09/02 07:36:21;;;;;;;5.63;5.13;;;;;;;17.41;100.00;100777.69;4989758;28;20054;-75
2023/09/02 07:38:50;;;;;;;7.07;5.53;;;;;;;17.51;100.00;100783.25;4983053;28;20046;-73
2023/09/02 07:41:18;;;;;;;5.60;4.20;;;;;;;17.56;100.00;100772.25;4990305;28;20072;-75
2023/09/02 07:43:46;;;;;;;4.65;4.20;;;;;;;17.67;100.00;100777.72;4988157;28;20132;-73
2023/09/02 07:46:14;;;;;;;5.72;4.07;;;;;;;17.68;100.00;100796.38;4985324;28;20056;-73
2023/09/02 07:48:48;;;;;;;5.63;4.70;;;;;;;17.58;100.00;100789.06;4996641;28;20471;-73
2023/09/02 07:51:17;;;;;;;5.75;4.10;;;;;;;17.44;100.00;100803.41;5003162;28;20506;-73
2023/09/02 07:53:45;;;;;;;4.20;3.65;;;;;;;17.34;100.00;100808.53;4985663;28;20077;-76
2023/09/02 07:56:14;;;;;;;5.10;4.60;;;;;;;17.49;100.00;100804.78;4985190;28;20137;-74
2023/09/02 07:58:46;;;;;;;5.60;5.03;;;;;;;17.62;100.00;100810.19;4969042;28;20050;-74
2023/09/02 08:01:16;;;;;;;4.85;4.30;;;;;;;17.51;100.00;100799.34;4995228;28;20061;-74
2023/09/02 08:03:45;;;;;;;4.85;4.45;;;;;;;17.56;100.00;100817.75;4958694;28;20491;-74
2023/09/02 08:06:14;;;;;;;6.15;4.80;;;;;;;17.47;100.00;100824.63;5004907;28;20498;-73
2023/09/02 08:08:42;;;;;;;5.15;4.22;;;;;;;17.71;100.00;100820.28;4994095;28;20046;-75
2023/09/02 08:11:11;;;;;;;5.30;4.60;;;;;;;17.85;100.00;100821.97;5002009;28;20104;-72
2023/09/02 08:13:39;;;;;;;4.05;3.67;;;;;;;18.02;100.00;100813.59;5005213;28;20210;-73
2023/09/02 08:16:09;;;;;;;4.93;3.40;;;;;;;18.48;100.00;100816.50;4988275;28;20049;-74
2023/09/02 08:18:38;;;;;;;4.85;3.67;;;;;;;18.83;100.00;100819.28;4981768;28;20050;-72
2023/09/02 08:21:11;;;;;;;2.83;2.50;;;;;;;19.11;100.00;100811.84;4969490;28;20148;-74
2023/09/02 08:23:41;;;;;;;2.78;2.58;;;;;;;19.37;100.00;100816.06;4967968;28;20056;-74
2023/09/02 08:26:13;;;;;;;3.33;2.90;;;;;;;19.56;100.00;100811.03;4999196;28;20050;-74
2023/09/02 08:28:41;;;;;;;3.30;2.42;;;;;;;19.84;100.00;100812.41;4982702;28;20105;-73
2023/09/02 08:31:11;;;;;;;3.13;2.38;;;;;;;19.96;100.00;100821.34;4984675;28;20118;-75
2023/09/02 08:33:48;;;;;;;3.90;2.50;;;;;;;20.11;100.00;100820.13;4979622;28;20062;-74
2023/09/02 08:36:19;;;;;;;5.57;3.00;;;;;;;20.09;100.00;100830.13;4990026;28;20054;-73
2023/09/02 08:38:48;;;;;;;3.40;3.10;;;;;;;20.10;100.00;100826.47;4986904;28;20884;-74
2023/09/02 08:41:25;;;;;;;2.95;2.70;;;;;;;20.23;100.00;100820.97;4991828;28;20125;-74
2023/09/02 08:43:54;;;;;;;3.00;2.70;;;;;;;20.14;100.00;100811.81;4992280;28;20038;-75
2023/09/02 08:46:26;;;;;;;3.53;2.83;;;;;;;20.20;100.00;100832.81;4966504;28;20046;-79
2023/09/02 08:48:58;;;;;;;4.95;3.08;;;;;;;20.14;100.00;100821.72;4997444;28;20061;-85
2023/09/02 08:51:32;;;;;;;3.90;2.88;;;;;;;19.96;100.00;100832.09;4997822;28;20080;-79
2023/09/02 08:54:05;;;;;;;3.30;3.00;;;;;;;19.79;100.00;100819.13;4983596;28;20109;-79
2023/09/02 08:56:34;;;;;;;3.22;2.30;;;;;;;19.64;100.00;100796.16;4995676;28;20093;-82
2023/09/02 08:59:17;;;;;;;2.83;2.60;;;;;;;19.36;100.00;100773.25;4983381;28;20132;-78
2023/09/02 09:02:01;;;;;;;4.60;2.42;;;;;;;19.16;100.00;100759.53;5010519;28;20104;-77
2023/09/02 09:04:33;;;;;;;3.00;2.80;;;;;;;19.41;100.00;100804.13;4983346;28;20585;-78
2023/09/02 09:07:07;;;;;;;3.20;2.60;;;;;;;19.23;100.00;100784.06;4997517;28;20048;-77
2023/09/02 09:09:37;;;;;;;2.97;2.67;;;;;;;19.23;100.00;100797.47;4995299;28;20045;-77
2023/09/02 09:12:13;;;;;;;4.22;3.13;;;;;;;19.40;100.00;100826.59;4999488;28;20073;-81
2023/09/02 09:14:56;;;;;;;2.85;2.50;;;;;;;19.05;100.00;100780.09;5010572;28;20143;-79
2023/09/02 09:17:40;;;;;;;2.63;2.42;;;;;;;19.34;100.00;100839.66;5002805;28;20121;-82
2023/09/02 09:20:24;;;;;;;4.43;2.78;;;;;;;19.15;100.00;100803.44;5015414;28;20046;-84
2023/09/02 09:23:08;;;;;;;6.38;2.33;;;;;;;19.31;100.00;100813.03;5016140;28;20061;-83
2023/09/02 09:25:49;;;;;;;2.60;2.40;;;;;;;19.19;100.00;100788.84;4998850;28;20279;-79
2023/09/02 09:31:48;;;;;;;;;;;;;;;;;;;;;
2023/09/02 09:34:42;;;;;;;3.13;2.58;;;;;;;18.95;100.00;100779.94;4997641;28;20057;-80
2023/09/02 09:37:28;;;;;;;3.05;2.60;;;;;;;19.32;100.00;100852.31;5018035;28;20133;-82
2023/09/02 09:40:14;;;;;;;3.33;2.33;;;;;;;18.94;100.00;100780.91;4996885;28;20058;-83
2023/09/02 09:43:01;;;;;;;3.03;2.83;;;;;;;19.44;100.00;100843.31;5003456;28;20144;-80
2023/09/02 09:45:32;;;;;;;2.65;2.38;;;;;;;19.46;100.00;100826.13;5008102;28;20060;-77
2023/09/02 09:48:11;;;;;;;2.47;2.28;;;;;;;19.27;100.00;100794.44;5004613;28;20933;-78
2023/09/02 09:50:42;;;;;;;2.40;2.20;;;;;;;19.52;100.00;100840.91;4979171;28;20050;-76
2023/09/02 09:53:11;;;;;;;4.03;2.67;;;;;;;19.49;100.00;100830.41;4993755;28;20046;-77
2023/09/02 09:55:41;;;;;;;4.07;2.40;;;;;;;19.57;100.00;100853.03;4972160;28;20046;-77
2023/09/02 09:58:11;;;;;;;2.50;1.90;;;;;;;19.63;100.00;100851.72;4953920;28;20047;-77
2023/09/02 10:00:40;;;;;;;2.97;2.13;;;;;;;19.78;100.00;100845.16;4970090;28;20046;-77
2023/09/02 10:03:15;;;;;;;4.03;1.85;;;;;;;19.89;100.00;100830.84;4974787;28;20061;-79
2023/09/02 10:06:01;;;;;;;3.00;2.10;;;;;;;19.79;100.00;100797.63;4976507;28;20067;-77
2023/09/02 10:08:49;;;;;;;3.15;2.05;;;;;;;19.96;100.00;100806.06;4974391;28;20102;-72
2023/09/02 10:11:24;;;;;;;1.60;1.48;;;;;;;20.12;100.00;100810.22;4970805;28;20057;-73
2023/09/02 10:13:57;;;;;;;3.17;1.20;;;;;;;20.35;100.00;100846.00;4996401;28;20561;-72
2023/09/02 10:16:25;;;;;;;2.00;1.30;;;;;;;20.41;100.00;100832.09;4993816;28;20563;-71
2023/09/02 10:18:54;;;;;;;1.40;1.30;;;;;;;20.50;100.00;100820.59;4975821;28;20057;-73
2023/09/02 10:21:31;;;;;;;2.40;1.50;;;;;;;20.64;100.00;100850.75;4982281;28;20046;-72
2023/09/02 10:24:04;;;;;;;2.40;1.38;;;;;;;20.73;100.00;100854.56;4974392;28;20113;-73
2023/09/02 10:26:44;;;;;;;1.98;1.23;;;;;;;20.75;100.00;100857.13;4973426;28;20047;-72
2023/09/02 10:29:14;;;;;;;1.40;1.30;;;;;;;20.68;100.00;100856.75;4971674;28;20106;-73
2023/09/02 10:31:51;;;;;;;1.40;1.30;;;;;;;20.45;100.00;100825.50;4954618;28;20050;-72
2023/09/02 10:34:28;;;;;;;2.00;1.05;;;;;;;20.54;100.00;100847.13;4990003;28;20057;-73
2023/09/02 10:36:58;;;;;;;0.90;0.90;;;;;;;20.61;100.00;100850.19;4971430;28;20502;-73
2023/09/02 10:39:35;;;;;;;1.13;0.93;;;;;;;20.65;100.00;100840.84;4956700;28;20054;-72
2023/09/02 10:42:05;;;;;;;1.70;1.00;;;;;;;20.70;100.00;100832.41;4987533;28;20499;-72
2023/09/02 10:44:33;;;;;;;1.23;0.93;;;;;;;20.81;100.00;100841.31;4978835;28;20066;-71
2023/09/02 10:47:03;;;;;;;3.38;1.00;;;;;;;20.92;100.00;100835.91;4970126;28;21277;-72
2023/09/02 10:49:34;;;;;;;2.13;0.70;;;;;;;21.00;100.00;100827.19;4966437;28;20065;-71
2023/09/02 10:52:03;;;;;;;1.10;1.00;;;;;;;21.17;100.00;100832.00;4989273;28;20058;-73
2023/09/02 10:55:02;;;;;;;1.05;0.80;;;;;;;21.36;100.00;100839.41;4972147;28;20149;-72
2023/09/02 10:57:44;;;;;;;0.80;0.70;;;;;;;21.62;100.00;100837.19;4964123;28;20051;-71
2023/09/02 11:00:21;;;;;;;2.20;1.08;;;;;;;21.82;100.00;100821.97;4963518;28;20582;-74
2023/09/02 11:02:52;;;;;;;1.67;0.70;;;;;;;22.00;100.00;100823.97;4985962;28;20042;-73
2023/09/02 11:05:21;;;;;;;1.15;0.80;;;;;;;22.11;100.00;100832.94;4973607;28;20042;-73
2023/09/02 11:07:52;;;;;;;2.90;0.82;;;;;;;22.20;100.00;100815.94;4956036;28;20050;-73
2023/09/02 11:10:22;;;;;;;0.95;0.80;;;;;;;22.21;100.00;100821.19;4965813;28;20046;-71
2023/09/02 11:13:06;;;;;;;2.47;1.00;;;;;;;22.37;100.00;100821.53;4985384;28;20049;-73
2023/09/02 11:15:35;;;;;;;0.60;0.60;;;;;;;22.48;100.00;100827.84;4969972;28;20415;-74
2023/09/02 11:18:27;;;;;;;0.60;0.60;;;;;;;22.62;100.00;100817.50;4964247;28;20046;-74
2023/09/02 11:20:57;;;;;;;1.10;0.65;;;;;;;22.74;100.00;100829.00;4958650;28;20054;-72
2023/09/02 11:23:25;;;;;;;0.93;0.63;;;;;;;22.90;100.00;100826.66;4985970;28;20072;-71
2023/09/02 11:26:04;;;;;;;1.95;0.60;;;;;;;23.03;100.00;100816.41;4984551;28;20046;-71
2023/09/02 11:28:33;;;;;;;1.42;0.50;;;;;;;23.26;100.00;100827.81;4954342;28;20066;-72
2023/09/02 11:31:04;;;;;;;0.68;0.63;;;;;;;23.40;100.00;100819.25;4983102;28;21589;-72
2023/09/02 11:33:34;;;;;;;4.95;0.80;;;;;;;23.48;100.00;100814.97;4955456;28;20155;-72
2023/09/02 11:36:04;;;;;;;2.05;0.80;;;;;;;23.53;100.00;100818.13;4982171;28;20038;-73
2023/09/02 11:38:33;;;;;;;0.90;0.63;;;;;;;23.67;100.00;100818.53;4989063;28;20046;-73
2023/09/02 11:41:02;;;;;;;2.63;0.70;;;;;;;23.77;100.00;100810.38;4957110;28;20050;-72